Besuchen Sie unsere anderen Wetter Stationen:

Template documentation
and downloads

And another site


METAR-Meldungen aus der Umgebung

   
EHVK - Volkel Rnlafb, Netherlands
Entfernung von der Station bis: SW 18 km
Aktualisierung: 11-04-2021 15:02
Bewölkt  
Bewölkt  
   Wind: NNW 14.8 km/h
Wind: NNW 14.8 km/h
Temperatur: 7°C
Gefühlt: 4°C
Taupunkt: 2°C
Luftfeuchte: 71%
Luftdruck: 1014 hPa
Bewölkt: Bewölkt
Sichtbarkeit: More than 10 km
Bewölkung: Teilweise bewölkt 701 m,
Bewölkt 1493.5 m
EHVK 111302Z AUTO 33008KT 300V020 9999 SCT023 OVC049 07/02 Q1014 WHT
EDLV - Niederrhein, Germany
Entfernung von der Station bis: SO 25 km
Aktualisierung: 11-04-2021 14:50
Stark bewölkt  
Stark bewölkt  
   Wind: NNW 9.3 km/h
Wind: NNW 9.3 km/h
Temperatur: 6°C
Gefühlt: 4°C
Taupunkt: 3°C
Luftfeuchte: 81%
Luftdruck: 1014 hPa
Bewölkt: Stark bewölkt
Sichtbarkeit: More than 10 km
Bewölkung: Teilweise bewölkt 609.6 m,
Stark bewölkt 1371.6 m
EDLV 111250Z 33005KT 300V020 9999 SCT020 BKN045 06/03 Q1014
EHDL - Deelen Rnlafb, Netherlands
Entfernung von der Station bis: N 35 km
Aktualisierung: 11-04-2021 14:55
Bewölkt  
Bewölkt  
   Wind: NNW 22.2 km/h
Wind: NNW 22.2 km/h
Temperatur: 6°C
Gefühlt: 2°C
Taupunkt: 1°C
Luftfeuchte: 71%
Luftdruck: 1014 hPa
Bewölkt: Bewölkt
Sichtbarkeit: More than 10 km
Bewölkung: leicht bewölkt 579.1 m,
Bewölkt 1158.2 m
EHDL 111255Z AUTO 34012KT 280V020 9999 FEW019 OVC038 06/01 Q1014 BLU
EHEH - Eindhoven Rnlafb, Netherlands
Entfernung von der Station bis: SW 48 km
Aktualisierung: 11-04-2021 15:06
Stark bewölkt  
Stark bewölkt  
   Wind: NNW 16.7 km/h
Wind: NNW 16.7 km/h
Temperatur: 7°C
Gefühlt: 4°C
Taupunkt: 1°C
Luftfeuchte: 66%
Luftdruck: 1015 hPa
Bewölkt: Stark bewölkt
Sichtbarkeit: More than 10 km
Bewölkung: Stark bewölkt 731.5 m,
Stark bewölkt 853.4 m,
Stark bewölkt 975.4 m
EHEH 111306Z AUTO 34009KT 300V030 9999 BKN024 BKN028 BKN032 07/01 Q1015 WHT NOSIG
EHGR - Gilze-Rijen Rnla, Netherlands
Entfernung von der Station bis: WSW 70 km
Aktualisierung: 11-04-2021 14:55
Stark bewölkt  
Stark bewölkt  
   Wind: NNW 24.1 km/h
Wind: NNW 24.1 km/h
Temperatur: 7°C
Gefühlt: 3°C
Taupunkt: 0°C
Luftfeuchte: 61%
Luftdruck: 1015 hPa
Bewölkt: Stark bewölkt
Sichtbarkeit: More than 10 km
Bewölkung: Teilweise bewölkt 1036.3 m,
Teilweise bewölkt 1158.2 m,
Stark bewölkt 1310.6 m
EHGR 111255Z AUTO 34013KT 280V040 9999 SCT034 SCT038 BKN043 07/M00 Q1015 BLU
EBBL - Kleine-Brogel(Ba, Belgium
Entfernung von der Station bis: SSW 71 km
Aktualisierung: 11-04-2021 14:55
Bewölkt  
Bewölkt  
   Wind: NNW 14.8 km/h
Wind: NNW 14.8 km/h
Temperatur: 6°C
Gefühlt: 3°C
Taupunkt: 1°C
Luftfeuchte: 71%
Luftdruck: 1015 hPa
Bewölkt: Bewölkt
Sichtbarkeit: More than 10 km
Bewölkung: Bewölkt 701 m
EBBL 111255Z AUTO 33008KT 9999 OVC023/// 06/01 Q1015 WHT

Script entwickelt von  Saratoga-weather.org Angepasst für das Template von  Weerstation Leuven

Sie finden unser Wetter-Infos auch auf:

netzwerkwettercom

European Weather Network

WeatherCloud

Weather Underground

AWEKAS

Citizen Weather Observer Program (CWOP)

HAMweather, WeatherForYou, PWS Weather

Von uns verwendete Ausrüstung:

Wetterstation
Davis VP2

Wetterprogramm
Weather Display

Davis VP2

Weather Display